sensor_id;sensor_type;location;lat;lon;timestamp;P1;durP1;ratioP1;P2;durP2;ratioP2
17363;SDS011;8799;43.594;13.526;2023-02-07T00:02:25;2.70;;;1.60;;
17363;SDS011;8799;43.594;13.526;2023-02-07T00:04:53;2.23;;;1.50;;
17363;SDS011;8799;43.594;13.526;2023-02-07T00:07:21;3.20;;;1.60;;
17363;SDS011;8799;43.594;13.526;2023-02-07T00:09:50;2.60;;;1.50;;
17363;SDS011;8799;43.594;13.526;2023-02-07T00:12:18;2.43;;;1.83;;
17363;SDS011;8799;43.594;13.526;2023-02-07T00:14:48;2.23;;;1.67;;
17363;SDS011;8799;43.594;13.526;2023-02-07T00:17:16;2.83;;;1.90;;
17363;SDS011;8799;43.594;13.526;2023-02-07T00:19:44;2.53;;;1.60;;
17363;SDS011;8799;43.594;13.526;2023-02-07T00:22:12;1.93;;;1.60;;
17363;SDS011;8799;43.594;13.526;2023-02-07T00:24:41;3.73;;;1.93;;
17363;SDS011;8799;43.594;13.526;2023-02-07T00:27:09;3.63;;;1.90;;
17363;SDS011;8799;43.594;13.526;2023-02-07T00:29:37;1.73;;;1.47;;
17363;SDS011;8799;43.594;13.526;2023-02-07T00:32:06;4.27;;;1.90;;
17363;SDS011;8799;43.594;13.526;2023-02-07T00:34:35;2.47;;;1.53;;
17363;SDS011;8799;43.594;13.526;2023-02-07T00:37:03;2.87;;;1.70;;
17363;SDS011;8799;43.594;13.526;2023-02-07T00:39:31;1.57;;;1.43;;
17363;SDS011;8799;43.594;13.526;2023-02-07T00:42:00;2.37;;;1.60;;
17363;SDS011;8799;43.594;13.526;2023-02-07T00:44:28;2.20;;;1.60;;
17363;SDS011;8799;43.594;13.526;2023-02-07T00:46:56;2.27;;;1.70;;
17363;SDS011;8799;43.594;13.526;2023-02-07T00:49:26;4.07;;;2.03;;
17363;SDS011;8799;43.594;13.526;2023-02-07T00:51:55;2.33;;;1.57;;
17363;SDS011;8799;43.594;13.526;2023-02-07T00:54:24;3.20;;;1.70;;
17363;SDS011;8799;43.594;13.526;2023-02-07T00:56:52;3.90;;;1.90;;
17363;SDS011;8799;43.594;13.526;2023-02-07T00:59:20;3.73;;;1.80;;
17363;SDS011;8799;43.594;13.526;2023-02-07T01:01:48;2.43;;;1.90;;
17363;SDS011;8799;43.594;13.526;2023-02-07T01:04:16;2.17;;;1.63;;
17363;SDS011;8799;43.594;13.526;2023-02-07T01:06:46;2.70;;;1.87;;
17363;SDS011;8799;43.594;13.526;2023-02-07T01:09:13;2.80;;;1.53;;
17363;SDS011;8799;43.594;13.526;2023-02-07T01:11:41;2.57;;;1.67;;
17363;SDS011;8799;43.594;13.526;2023-02-07T01:14:10;3.40;;;1.70;;
17363;SDS011;8799;43.594;13.526;2023-02-07T01:16:39;2.33;;;1.60;;
17363;SDS011;8799;43.594;13.526;2023-02-07T01:19:08;3.10;;;1.77;;
17363;SDS011;8799;43.594;13.526;2023-02-07T01:21:37;2.33;;;1.77;;
17363;SDS011;8799;43.594;13.526;2023-02-07T01:24:07;2.23;;;1.57;;
17363;SDS011;8799;43.594;13.526;2023-02-07T01:26:35;2.33;;;1.70;;
17363;SDS011;8799;43.594;13.526;2023-02-07T01:29:04;3.03;;;1.70;;
17363;SDS011;8799;43.594;13.526;2023-02-07T01:31:32;2.57;;;1.80;;
17363;SDS011;8799;43.594;13.526;2023-02-07T01:34:00;2.47;;;1.57;;
17363;SDS011;8799;43.594;13.526;2023-02-07T01:36:29;2.80;;;1.70;;
17363;SDS011;8799;43.594;13.526;2023-02-07T01:38:57;1.73;;;1.60;;
17363;SDS011;8799;43.594;13.526;2023-02-07T01:41:26;4.07;;;1.80;;
17363;SDS011;8799;43.594;13.526;2023-02-07T01:43:56;3.53;;;1.77;;
17363;SDS011;8799;43.594;13.526;2023-02-07T01:46:26;2.40;;;1.60;;
17363;SDS011;8799;43.594;13.526;2023-02-07T01:48:57;1.93;;;1.63;;
17363;SDS011;8799;43.594;13.526;2023-02-07T01:51:27;2.70;;;1.50;;
17363;SDS011;8799;43.594;13.526;2023-02-07T01:53:59;3.37;;;2.00;;
17363;SDS011;8799;43.594;13.526;2023-02-07T01:56:32;3.73;;;1.97;;
17363;SDS011;8799;43.594;13.526;2023-02-07T01:59:01;2.97;;;2.03;;
17363;SDS011;8799;43.594;13.526;2023-02-07T02:01:31;3.00;;;1.53;;
17363;SDS011;8799;43.594;13.526;2023-02-07T02:04:00;3.50;;;1.97;;
17363;SDS011;8799;43.594;13.526;2023-02-07T02:06:29;2.37;;;1.70;;
17363;SDS011;8799;43.594;13.526;2023-02-07T02:09:00;2.90;;;1.90;;
17363;SDS011;8799;43.594;13.526;2023-02-07T02:11:46;3.07;;;2.20;;
17363;SDS011;8799;43.594;13.526;2023-02-07T02:14:49;2.73;;;1.63;;
17363;SDS011;8799;43.594;13.526;2023-02-07T02:17:39;3.27;;;2.07;;
17363;SDS011;8799;43.594;13.526;2023-02-07T02:20:24;3.27;;;1.83;;
17363;SDS011;8799;43.594;13.526;2023-02-07T02:23:14;1.60;;;1.30;;
17363;SDS011;8799;43.594;13.526;2023-02-07T02:34:51;3.43;;;1.90;;
17363;SDS011;8799;43.594;13.526;2023-02-07T02:37:27;2.73;;;1.73;;
17363;SDS011;8799;43.594;13.526;2023-02-07T02:40:03;3.77;;;1.83;;
17363;SDS011;8799;43.594;13.526;2023-02-07T02:42:36;2.57;;;1.67;;
17363;SDS011;8799;43.594;13.526;2023-02-07T02:45:11;3.87;;;1.97;;
17363;SDS011;8799;43.594;13.526;2023-02-07T02:47:43;4.53;;;2.00;;
17363;SDS011;8799;43.594;13.526;2023-02-07T02:50:17;10.47;;;1.80;;
17363;SDS011;8799;43.594;13.526;2023-02-07T02:52:48;2.53;;;1.57;;
17363;SDS011;8799;43.594;13.526;2023-02-07T02:55:16;2.27;;;1.47;;
17363;SDS011;8799;43.594;13.526;2023-02-07T02:57:59;2.77;;;1.70;;
17363;SDS011;8799;43.594;13.526;2023-02-07T03:00:35;3.13;;;1.77;;
17363;SDS011;8799;43.594;13.526;2023-02-07T03:03:17;3.40;;;1.90;;
17363;SDS011;8799;43.594;13.526;2023-02-07T03:06:15;2.27;;;1.53;;
17363;SDS011;8799;43.594;13.526;2023-02-07T03:08:56;3.80;;;1.90;;
17363;SDS011;8799;43.594;13.526;2023-02-07T03:11:35;3.07;;;1.80;;
17363;SDS011;8799;43.594;13.526;2023-02-07T03:14:09;3.10;;;1.73;;
17363;SDS011;8799;43.594;13.526;2023-02-07T03:16:47;5.07;;;2.03;;
17363;SDS011;8799;43.594;13.526;2023-02-07T03:19:18;3.80;;;2.00;;
17363;SDS011;8799;43.594;13.526;2023-02-07T03:21:51;4.60;;;2.00;;
17363;SDS011;8799;43.594;13.526;2023-02-07T03:24:25;3.53;;;2.00;;
17363;SDS011;8799;43.594;13.526;2023-02-07T03:26:57;3.47;;;1.70;;
17363;SDS011;8799;43.594;13.526;2023-02-07T03:29:27;3.17;;;1.63;;
17363;SDS011;8799;43.594;13.526;2023-02-07T03:31:56;3.37;;;1.90;;
17363;SDS011;8799;43.594;13.526;2023-02-07T03:34:30;4.50;;;2.03;;
17363;SDS011;8799;43.594;13.526;2023-02-07T03:37:05;2.90;;;1.70;;
17363;SDS011;8799;43.594;13.526;2023-02-07T03:39:36;13.47;;;2.07;;
17363;SDS011;8799;43.594;13.526;2023-02-07T03:42:06;3.77;;;1.90;;
17363;SDS011;8799;43.594;13.526;2023-02-07T03:44:40;2.77;;;1.80;;
17363;SDS011;8799;43.594;13.526;2023-02-07T03:47:11;3.27;;;1.90;;
17363;SDS011;8799;43.594;13.526;2023-02-07T03:49:39;2.90;;;1.80;;
17363;SDS011;8799;43.594;13.526;2023-02-07T03:52:09;6.10;;;2.17;;
17363;SDS011;8799;43.594;13.526;2023-02-07T03:54:37;4.83;;;2.03;;
17363;SDS011;8799;43.594;13.526;2023-02-07T03:57:05;3.53;;;1.93;;
17363;SDS011;8799;43.594;13.526;2023-02-07T03:59:33;2.73;;;2.07;;
17363;SDS011;8799;43.594;13.526;2023-02-07T04:02:01;5.30;;;2.17;;
17363;SDS011;8799;43.594;13.526;2023-02-07T04:04:30;2.50;;;1.70;;
17363;SDS011;8799;43.594;13.526;2023-02-07T04:06:58;6.00;;;2.20;;
17363;SDS011;8799;43.594;13.526;2023-02-07T04:09:28;4.73;;;2.20;;
17363;SDS011;8799;43.594;13.526;2023-02-07T04:11:56;3.23;;;2.10;;
17363;SDS011;8799;43.594;13.526;2023-02-07T04:14:24;3.03;;;2.20;;
17363;SDS011;8799;43.594;13.526;2023-02-07T04:16:52;4.23;;;1.80;;
17363;SDS011;8799;43.594;13.526;2023-02-07T04:19:20;5.30;;;2.40;;
17363;SDS011;8799;43.594;13.526;2023-02-07T04:21:48;4.03;;;1.97;;
17363;SDS011;8799;43.594;13.526;2023-02-07T04:24:16;3.70;;;1.90;;
17363;SDS011;8799;43.594;13.526;2023-02-07T04:26:45;3.17;;;1.60;;
17363;SDS011;8799;43.594;13.526;2023-02-07T04:29:14;3.80;;;1.70;;
17363;SDS011;8799;43.594;13.526;2023-02-07T04:31:42;3.43;;;2.00;;
17363;SDS011;8799;43.594;13.526;2023-02-07T04:34:10;7.27;;;1.90;;
17363;SDS011;8799;43.594;13.526;2023-02-07T04:36:38;4.40;;;2.17;;
17363;SDS011;8799;43.594;13.526;2023-02-07T04:39:07;2.80;;;2.00;;
17363;SDS011;8799;43.594;13.526;2023-02-07T04:41:35;4.03;;;1.93;;
17363;SDS011;8799;43.594;13.526;2023-02-07T04:44:05;4.30;;;1.90;;
17363;SDS011;8799;43.594;13.526;2023-02-07T04:46:34;4.93;;;1.87;;
17363;SDS011;8799;43.594;13.526;2023-02-07T04:49:02;3.20;;;1.90;;
17363;SDS011;8799;43.594;13.526;2023-02-07T04:51:30;4.33;;;1.90;;
17363;SDS011;8799;43.594;13.526;2023-02-07T04:53:59;3.17;;;1.97;;
17363;SDS011;8799;43.594;13.526;2023-02-07T04:56:27;7.43;;;2.03;;
17363;SDS011;8799;43.594;13.526;2023-02-07T04:58:55;3.50;;;1.97;;
17363;SDS011;8799;43.594;13.526;2023-02-07T05:01:25;5.10;;;2.10;;
17363;SDS011;8799;43.594;13.526;2023-02-07T05:03:53;2.57;;;1.80;;
17363;SDS011;8799;43.594;13.526;2023-02-07T05:06:21;3.30;;;2.00;;
17363;SDS011;8799;43.594;13.526;2023-02-07T05:08:49;2.77;;;1.80;;
17363;SDS011;8799;43.594;13.526;2023-02-07T05:11:17;5.80;;;2.07;;
17363;SDS011;8799;43.594;13.526;2023-02-07T05:13:45;3.43;;;2.03;;
17363;SDS011;8799;43.594;13.526;2023-02-07T05:16:13;3.37;;;2.27;;
17363;SDS011;8799;43.594;13.526;2023-02-07T05:18:43;2.47;;;1.83;;
17363;SDS011;8799;43.594;13.526;2023-02-07T05:21:11;3.60;;;1.80;;
17363;SDS011;8799;43.594;13.526;2023-02-07T05:23:39;2.90;;;1.90;;
17363;SDS011;8799;43.594;13.526;2023-02-07T05:26:07;4.60;;;2.23;;
17363;SDS011;8799;43.594;13.526;2023-02-07T05:28:35;4.87;;;2.10;;
17363;SDS011;8799;43.594;13.526;2023-02-07T05:31:03;6.07;;;2.30;;
17363;SDS011;8799;43.594;13.526;2023-02-07T05:33:31;4.00;;;2.40;;
17363;SDS011;8799;43.594;13.526;2023-02-07T05:36:00;6.93;;;2.73;;
17363;SDS011;8799;43.594;13.526;2023-02-07T05:38:29;4.77;;;2.63;;
17363;SDS011;8799;43.594;13.526;2023-02-07T05:40:57;5.00;;;2.37;;
17363;SDS011;8799;43.594;13.526;2023-02-07T05:43:24;4.27;;;2.40;;
17363;SDS011;8799;43.594;13.526;2023-02-07T05:45:53;5.70;;;2.57;;
17363;SDS011;8799;43.594;13.526;2023-02-07T05:48:21;5.50;;;2.57;;
17363;SDS011;8799;43.594;13.526;2023-02-07T05:50:49;5.53;;;2.30;;
17363;SDS011;8799;43.594;13.526;2023-02-07T05:53:19;4.97;;;2.60;;
17363;SDS011;8799;43.594;13.526;2023-02-07T05:55:49;6.60;;;2.70;;
17363;SDS011;8799;43.594;13.526;2023-02-07T05:58:18;5.57;;;2.57;;
17363;SDS011;8799;43.594;13.526;2023-02-07T06:00:45;5.60;;;2.70;;
17363;SDS011;8799;43.594;13.526;2023-02-07T06:03:13;7.30;;;2.63;;
17363;SDS011;8799;43.594;13.526;2023-02-07T06:05:41;6.13;;;2.73;;
17363;SDS011;8799;43.594;13.526;2023-02-07T06:08:09;10.00;;;2.70;;
17363;SDS011;8799;43.594;13.526;2023-02-07T06:10:39;5.27;;;2.80;;
17363;SDS011;8799;43.594;13.526;2023-02-07T06:13:07;6.33;;;2.40;;
17363;SDS011;8799;43.594;13.526;2023-02-07T06:15:35;5.67;;;2.70;;
17363;SDS011;8799;43.594;13.526;2023-02-07T06:18:03;6.40;;;3.07;;
17363;SDS011;8799;43.594;13.526;2023-02-07T06:20:32;5.50;;;3.00;;
17363;SDS011;8799;43.594;13.526;2023-02-07T06:23:00;6.47;;;2.97;;
17363;SDS011;8799;43.594;13.526;2023-02-07T06:25:28;7.10;;;3.10;;
17363;SDS011;8799;43.594;13.526;2023-02-07T06:27:58;6.77;;;2.97;;
17363;SDS011;8799;43.594;13.526;2023-02-07T06:30:27;16.23;;;2.87;;
17363;SDS011;8799;43.594;13.526;2023-02-07T06:32:55;22.00;;;3.30;;
17363;SDS011;8799;43.594;13.526;2023-02-07T06:35:23;11.93;;;3.30;;
17363;SDS011;8799;43.594;13.526;2023-02-07T06:37:51;8.77;;;2.87;;
17363;SDS011;8799;43.594;13.526;2023-02-07T06:40:21;7.33;;;2.90;;
17363;SDS011;8799;43.594;13.526;2023-02-07T06:42:48;9.00;;;2.77;;
17363;SDS011;8799;43.594;13.526;2023-02-07T06:45:18;10.17;;;3.00;;
17363;SDS011;8799;43.594;13.526;2023-02-07T06:47:46;6.37;;;2.23;;
17363;SDS011;8799;43.594;13.526;2023-02-07T06:50:15;14.17;;;3.03;;
17363;SDS011;8799;43.594;13.526;2023-02-07T06:52:43;13.60;;;3.77;;
17363;SDS011;8799;43.594;13.526;2023-02-07T06:55:11;7.37;;;2.90;;
17363;SDS011;8799;43.594;13.526;2023-02-07T06:57:39;18.93;;;2.93;;
17363;SDS011;8799;43.594;13.526;2023-02-07T07:00:08;7.13;;;2.33;;
17363;SDS011;8799;43.594;13.526;2023-02-07T07:02:38;6.97;;;2.50;;
17363;SDS011;8799;43.594;13.526;2023-02-07T07:05:06;10.37;;;2.13;;
17363;SDS011;8799;43.594;13.526;2023-02-07T07:07:34;9.37;;;2.50;;
17363;SDS011;8799;43.594;13.526;2023-02-07T07:10:03;13.13;;;2.73;;
17363;SDS011;8799;43.594;13.526;2023-02-07T07:12:32;10.77;;;2.67;;
17363;SDS011;8799;43.594;13.526;2023-02-07T07:15:00;10.80;;;2.40;;
17363;SDS011;8799;43.594;13.526;2023-02-07T07:17:29;4.67;;;2.40;;
17363;SDS011;8799;43.594;13.526;2023-02-07T07:19:58;8.57;;;2.60;;
17363;SDS011;8799;43.594;13.526;2023-02-07T07:22:26;5.93;;;2.63;;
17363;SDS011;8799;43.594;13.526;2023-02-07T07:24:54;11.47;;;2.63;;
17363;SDS011;8799;43.594;13.526;2023-02-07T07:27:22;11.73;;;2.43;;
17363;SDS011;8799;43.594;13.526;2023-02-07T07:29:50;6.73;;;3.17;;
17363;SDS011;8799;43.594;13.526;2023-02-07T07:32:18;8.40;;;2.30;;
17363;SDS011;8799;43.594;13.526;2023-02-07T07:34:46;4.80;;;2.27;;
17363;SDS011;8799;43.594;13.526;2023-02-07T07:37:16;6.10;;;2.53;;
17363;SDS011;8799;43.594;13.526;2023-02-07T07:39:44;7.20;;;2.63;;
17363;SDS011;8799;43.594;13.526;2023-02-07T07:42:12;10.30;;;3.00;;
17363;SDS011;8799;43.594;13.526;2023-02-07T07:44:40;6.60;;;3.07;;
17363;SDS011;8799;43.594;13.526;2023-02-07T07:47:08;8.73;;;2.80;;
17363;SDS011;8799;43.594;13.526;2023-02-07T07:49:38;5.07;;;2.70;;
17363;SDS011;8799;43.594;13.526;2023-02-07T07:52:06;5.03;;;2.50;;
17363;SDS011;8799;43.594;13.526;2023-02-07T07:54:35;5.23;;;2.60;;
17363;SDS011;8799;43.594;13.526;2023-02-07T07:57:03;4.83;;;2.40;;
17363;SDS011;8799;43.594;13.526;2023-02-07T07:59:32;4.17;;;2.40;;
17363;SDS011;8799;43.594;13.526;2023-02-07T08:02:00;6.53;;;2.57;;
17363;SDS011;8799;43.594;13.526;2023-02-07T08:04:29;5.80;;;2.70;;
17363;SDS011;8799;43.594;13.526;2023-02-07T08:06:57;4.00;;;2.03;;
17363;SDS011;8799;43.594;13.526;2023-02-07T08:09:26;4.73;;;2.27;;
17363;SDS011;8799;43.594;13.526;2023-02-07T08:11:56;4.50;;;2.60;;
17363;SDS011;8799;43.594;13.526;2023-02-07T08:14:24;5.70;;;2.70;;
17363;SDS011;8799;43.594;13.526;2023-02-07T08:16:53;7.50;;;2.87;;
17363;SDS011;8799;43.594;13.526;2023-02-07T08:19:21;5.07;;;2.47;;
17363;SDS011;8799;43.594;13.526;2023-02-07T08:21:49;5.57;;;2.40;;
17363;SDS011;8799;43.594;13.526;2023-02-07T08:24:17;7.77;;;2.67;;
17363;SDS011;8799;43.594;13.526;2023-02-07T08:26:45;6.17;;;2.47;;
17363;SDS011;8799;43.594;13.526;2023-02-07T08:29:15;3.83;;;2.47;;
17363;SDS011;8799;43.594;13.526;2023-02-07T08:31:45;4.77;;;2.30;;
17363;SDS011;8799;43.594;13.526;2023-02-07T08:34:13;5.97;;;2.47;;
17363;SDS011;8799;43.594;13.526;2023-02-07T08:36:42;3.23;;;2.00;;
17363;SDS011;8799;43.594;13.526;2023-02-07T08:39:11;7.03;;;2.60;;
17363;SDS011;8799;43.594;13.526;2023-02-07T08:41:39;4.50;;;2.57;;
17363;SDS011;8799;43.594;13.526;2023-02-07T08:44:07;6.73;;;3.07;;
17363;SDS011;8799;43.594;13.526;2023-02-07T08:46:37;5.83;;;2.23;;
17363;SDS011;8799;43.594;13.526;2023-02-07T08:49:05;5.57;;;2.53;;
17363;SDS011;8799;43.594;13.526;2023-02-07T08:51:33;5.67;;;2.43;;
17363;SDS011;8799;43.594;13.526;2023-02-07T08:54:01;8.77;;;2.67;;
17363;SDS011;8799;43.594;13.526;2023-02-07T08:56:29;4.10;;;2.30;;
17363;SDS011;8799;43.594;13.526;2023-02-07T08:58:57;6.23;;;2.37;;
17363;SDS011;8799;43.594;13.526;2023-02-07T09:01:25;4.17;;;2.00;;
17363;SDS011;8799;43.594;13.526;2023-02-07T09:03:55;4.37;;;2.43;;
17363;SDS011;8799;43.594;13.526;2023-02-07T09:06:23;4.73;;;2.43;;
17363;SDS011;8799;43.594;13.526;2023-02-07T09:08:52;5.73;;;2.37;;
17363;SDS011;8799;43.594;13.526;2023-02-07T09:11:20;7.17;;;2.60;;
17363;SDS011;8799;43.594;13.526;2023-02-07T09:13:48;3.83;;;2.30;;
17363;SDS011;8799;43.594;13.526;2023-02-07T09:16:16;4.90;;;2.50;;
17363;SDS011;8799;43.594;13.526;2023-02-07T09:18:44;6.07;;;2.57;;
17363;SDS011;8799;43.594;13.526;2023-02-07T09:21:14;4.90;;;2.47;;
17363;SDS011;8799;43.594;13.526;2023-02-07T09:23:42;5.20;;;2.30;;
17363;SDS011;8799;43.594;13.526;2023-02-07T09:26:13;7.27;;;2.33;;
17363;SDS011;8799;43.594;13.526;2023-02-07T09:28:42;7.43;;;2.70;;
17363;SDS011;8799;43.594;13.526;2023-02-07T09:31:11;3.77;;;2.27;;
17363;SDS011;8799;43.594;13.526;2023-02-07T09:33:40;5.63;;;2.43;;
17363;SDS011;8799;43.594;13.526;2023-02-07T09:36:17;2.57;;;2.17;;
17363;SDS011;8799;43.594;13.526;2023-02-07T09:38:47;4.83;;;2.63;;
17363;SDS011;8799;43.594;13.526;2023-02-07T09:41:18;3.67;;;2.23;;
17363;SDS011;8799;43.594;13.526;2023-02-07T09:43:57;4.30;;;2.40;;
17363;SDS011;8799;43.594;13.526;2023-02-07T09:46:32;4.77;;;2.27;;
17363;SDS011;8799;43.594;13.526;2023-02-07T09:49:03;4.33;;;2.67;;
17363;SDS011;8799;43.594;13.526;2023-02-07T09:51:37;4.10;;;2.27;;
17363;SDS011;8799;43.594;13.526;2023-02-07T09:54:11;4.50;;;2.33;;
17363;SDS011;8799;43.594;13.526;2023-02-07T09:56:44;4.40;;;2.20;;
17363;SDS011;8799;43.594;13.526;2023-02-07T09:59:17;4.27;;;2.10;;
17363;SDS011;8799;43.594;13.526;2023-02-07T10:01:50;3.93;;;2.20;;
17363;SDS011;8799;43.594;13.526;2023-02-07T10:04:28;7.07;;;1.97;;
17363;SDS011;8799;43.594;13.526;2023-02-07T10:07:04;5.37;;;2.30;;
17363;SDS011;8799;43.594;13.526;2023-02-07T10:09:35;4.77;;;2.70;;
17363;SDS011;8799;43.594;13.526;2023-02-07T10:12:08;6.23;;;2.30;;
17363;SDS011;8799;43.594;13.526;2023-02-07T10:14:55;4.67;;;2.20;;
17363;SDS011;8799;43.594;13.526;2023-02-07T10:17:42;4.17;;;2.30;;
17363;SDS011;8799;43.594;13.526;2023-02-07T10:20:29;6.03;;;2.27;;
17363;SDS011;8799;43.594;13.526;2023-02-07T10:23:14;4.80;;;2.07;;
17363;SDS011;8799;43.594;13.526;2023-02-07T10:26:00;3.63;;;2.13;;
17363;SDS011;8799;43.594;13.526;2023-02-07T10:28:58;3.77;;;2.00;;
17363;SDS011;8799;43.594;13.526;2023-02-07T10:31:52;6.13;;;2.77;;
17363;SDS011;8799;43.594;13.526;2023-02-07T10:34:23;3.13;;;2.10;;
17363;SDS011;8799;43.594;13.526;2023-02-07T10:36:57;3.80;;;2.10;;
17363;SDS011;8799;43.594;13.526;2023-02-07T10:39:28;3.67;;;2.10;;
17363;SDS011;8799;43.594;13.526;2023-02-07T10:41:59;3.80;;;2.20;;
17363;SDS011;8799;43.594;13.526;2023-02-07T10:44:27;4.20;;;2.47;;
17363;SDS011;8799;43.594;13.526;2023-02-07T10:46:56;5.07;;;2.67;;
17363;SDS011;8799;43.594;13.526;2023-02-07T10:49:27;3.70;;;2.20;;
17363;SDS011;8799;43.594;13.526;2023-02-07T10:51:57;3.90;;;2.50;;
17363;SDS011;8799;43.594;13.526;2023-02-07T10:54:30;4.00;;;2.40;;
17363;SDS011;8799;43.594;13.526;2023-02-07T10:57:17;5.23;;;2.70;;
17363;SDS011;8799;43.594;13.526;2023-02-07T10:59:46;2.97;;;2.00;;
17363;SDS011;8799;43.594;13.526;2023-02-07T11:08:20;4.77;;;2.40;;
17363;SDS011;8799;43.594;13.526;2023-02-07T11:10:53;3.43;;;1.80;;
17363;SDS011;8799;43.594;13.526;2023-02-07T11:13:23;6.50;;;2.57;;
17363;SDS011;8799;43.594;13.526;2023-02-07T11:15:53;3.33;;;2.40;;
17363;SDS011;8799;43.594;13.526;2023-02-07T11:18:27;3.23;;;2.10;;
17363;SDS011;8799;43.594;13.526;2023-02-07T11:21:03;5.37;;;2.07;;
17363;SDS011;8799;43.594;13.526;2023-02-07T11:23:45;3.17;;;2.17;;
17363;SDS011;8799;43.594;13.526;2023-02-07T11:26:16;3.10;;;2.20;;
17363;SDS011;8799;43.594;13.526;2023-02-07T11:28:44;4.47;;;2.23;;
17363;SDS011;8799;43.594;13.526;2023-02-07T11:31:27;5.27;;;2.33;;
17363;SDS011;8799;43.594;13.526;2023-02-07T11:34:05;14.93;;;2.70;;
17363;SDS011;8799;43.594;13.526;2023-02-07T11:36:36;6.30;;;2.40;;
17363;SDS011;8799;43.594;13.526;2023-02-07T11:39:11;4.90;;;2.23;;
17363;SDS011;8799;43.594;13.526;2023-02-07T11:41:51;3.73;;;2.30;;
17363;SDS011;8799;43.594;13.526;2023-02-07T11:44:22;4.27;;;2.43;;
17363;SDS011;8799;43.594;13.526;2023-02-07T11:46:51;3.67;;;1.97;;
17363;SDS011;8799;43.594;13.526;2023-02-07T11:49:22;3.23;;;2.00;;
17363;SDS011;8799;43.594;13.526;2023-02-07T11:51:53;4.70;;;2.20;;
17363;SDS011;8799;43.594;13.526;2023-02-07T11:54:24;7.40;;;2.23;;
17363;SDS011;8799;43.594;13.526;2023-02-07T11:57:01;4.80;;;2.40;;
17363;SDS011;8799;43.594;13.526;2023-02-07T11:59:30;4.13;;;2.23;;
17363;SDS011;8799;43.594;13.526;2023-02-07T12:01:59;3.90;;;2.40;;
17363;SDS011;8799;43.594;13.526;2023-02-07T12:04:36;3.77;;;2.27;;
17363;SDS011;8799;43.594;13.526;2023-02-07T12:07:06;4.50;;;2.13;;
17363;SDS011;8799;43.594;13.526;2023-02-07T12:09:39;4.63;;;2.43;;
17363;SDS011;8799;43.594;13.526;2023-02-07T12:12:14;4.77;;;2.03;;
17363;SDS011;8799;43.594;13.526;2023-02-07T12:14:47;3.67;;;2.23;;
17363;SDS011;8799;43.594;13.526;2023-02-07T12:17:20;4.10;;;1.93;;
17363;SDS011;8799;43.594;13.526;2023-02-07T12:19:53;5.53;;;1.97;;
17363;SDS011;8799;43.594;13.526;2023-02-07T12:22:27;4.07;;;2.33;;
17363;SDS011;8799;43.594;13.526;2023-02-07T12:25:00;4.07;;;2.27;;
17363;SDS011;8799;43.594;13.526;2023-02-07T12:27:35;4.07;;;2.23;;
17363;SDS011;8799;43.594;13.526;2023-02-07T12:30:09;4.73;;;2.10;;
17363;SDS011;8799;43.594;13.526;2023-02-07T12:32:45;7.13;;;2.50;;
17363;SDS011;8799;43.594;13.526;2023-02-07T12:35:20;3.40;;;2.43;;
17363;SDS011;8799;43.594;13.526;2023-02-07T12:37:54;3.87;;;2.30;;
17363;SDS011;8799;43.594;13.526;2023-02-07T12:40:31;4.73;;;2.50;;
17363;SDS011;8799;43.594;13.526;2023-02-07T12:43:04;4.20;;;2.60;;
17363;SDS011;8799;43.594;13.526;2023-02-07T12:48:41;3.57;;;2.07;;
17363;SDS011;8799;43.594;13.526;2023-02-07T12:51:23;3.50;;;2.30;;
17363;SDS011;8799;43.594;13.526;2023-02-07T12:54:04;3.30;;;2.10;;
17363;SDS011;8799;43.594;13.526;2023-02-07T12:56:41;3.20;;;1.80;;
17363;SDS011;8799;43.594;13.526;2023-02-07T12:59:21;3.30;;;2.20;;
17363;SDS011;8799;43.594;13.526;2023-02-07T13:01:58;4.80;;;2.30;;
17363;SDS011;8799;43.594;13.526;2023-02-07T13:04:50;4.17;;;2.47;;
17363;SDS011;8799;43.594;13.526;2023-02-07T13:07:35;3.60;;;2.00;;
17363;SDS011;8799;43.594;13.526;2023-02-07T13:10:16;3.50;;;1.83;;
17363;SDS011;8799;43.594;13.526;2023-02-07T13:12:50;3.87;;;2.00;;
17363;SDS011;8799;43.594;13.526;2023-02-07T13:15:29;2.70;;;1.93;;
17363;SDS011;8799;43.594;13.526;2023-02-07T13:18:05;2.83;;;2.03;;
17363;SDS011;8799;43.594;13.526;2023-02-07T13:20:40;4.83;;;1.90;;
17363;SDS011;8799;43.594;13.526;2023-02-07T13:23:20;3.53;;;2.03;;
17363;SDS011;8799;43.594;13.526;2023-02-07T13:25:51;3.10;;;1.93;;
17363;SDS011;8799;43.594;13.526;2023-02-07T13:28:24;3.00;;;2.10;;
17363;SDS011;8799;43.594;13.526;2023-02-07T13:31:03;3.97;;;1.93;;
17363;SDS011;8799;43.594;13.526;2023-02-07T13:33:33;3.37;;;2.00;;
17363;SDS011;8799;43.594;13.526;2023-02-07T13:36:04;2.13;;;1.87;;
17363;SDS011;8799;43.594;13.526;2023-02-07T13:38:45;2.60;;;2.00;;
17363;SDS011;8799;43.594;13.526;2023-02-07T13:41:27;3.60;;;1.90;;
17363;SDS011;8799;43.594;13.526;2023-02-07T13:44:02;2.43;;;1.90;;
17363;SDS011;8799;43.594;13.526;2023-02-07T13:46:53;4.33;;;2.30;;
17363;SDS011;8799;43.594;13.526;2023-02-07T13:49:40;3.90;;;2.00;;
17363;SDS011;8799;43.594;13.526;2023-02-07T13:52:11;3.10;;;1.93;;
17363;SDS011;8799;43.594;13.526;2023-02-07T13:54:48;2.03;;;1.70;;
17363;SDS011;8799;43.594;13.526;2023-02-07T13:57:36;5.07;;;1.93;;
17363;SDS011;8799;43.594;13.526;2023-02-07T14:00:23;5.00;;;2.00;;
17363;SDS011;8799;43.594;13.526;2023-02-07T14:02:54;2.57;;;1.50;;
17363;SDS011;8799;43.594;13.526;2023-02-07T14:05:26;3.33;;;1.97;;
17363;SDS011;8799;43.594;13.526;2023-02-07T14:07:57;5.70;;;2.30;;
17363;SDS011;8799;43.594;13.526;2023-02-07T14:10:34;4.23;;;1.90;;
17363;SDS011;8799;43.594;13.526;2023-02-07T14:13:18;4.33;;;2.03;;
17363;SDS011;8799;43.594;13.526;2023-02-07T14:15:51;4.83;;;2.43;;
17363;SDS011;8799;43.594;13.526;2023-02-07T14:21:23;3.90;;;1.80;;
17363;SDS011;8799;43.594;13.526;2023-02-07T14:23:57;2.90;;;1.90;;
17363;SDS011;8799;43.594;13.526;2023-02-07T14:26:41;1.83;;;1.60;;
17363;SDS011;8799;43.594;13.526;2023-02-07T14:29:51;3.03;;;1.83;;
17363;SDS011;8799;43.594;13.526;2023-02-07T14:32:30;6.50;;;2.30;;
17363;SDS011;8799;43.594;13.526;2023-02-07T14:38:00;3.10;;;2.17;;
17363;SDS011;8799;43.594;13.526;2023-02-07T14:40:51;2.87;;;1.87;;
17363;SDS011;8799;43.594;13.526;2023-02-07T14:43:28;3.40;;;1.80;;
17363;SDS011;8799;43.594;13.526;2023-02-07T14:46:03;3.40;;;1.80;;
17363;SDS011;8799;43.594;13.526;2023-02-07T14:48:41;3.73;;;2.10;;
17363;SDS011;8799;43.594;13.526;2023-02-07T14:51:17;4.43;;;2.10;;
17363;SDS011;8799;43.594;13.526;2023-02-07T14:53:50;3.80;;;2.00;;
17363;SDS011;8799;43.594;13.526;2023-02-07T14:56:37;3.40;;;1.80;;
17363;SDS011;8799;43.594;13.526;2023-02-07T14:59:12;3.37;;;2.23;;
17363;SDS011;8799;43.594;13.526;2023-02-07T15:01:44;2.30;;;1.60;;
17363;SDS011;8799;43.594;13.526;2023-02-07T15:04:13;4.43;;;2.20;;
17363;SDS011;8799;43.594;13.526;2023-02-07T15:06:42;2.80;;;2.10;;
17363;SDS011;8799;43.594;13.526;2023-02-07T15:09:17;3.07;;;1.87;;
17363;SDS011;8799;43.594;13.526;2023-02-07T15:11:51;1.97;;;1.57;;
17363;SDS011;8799;43.594;13.526;2023-02-07T15:14:23;2.87;;;2.07;;
17363;SDS011;8799;43.594;13.526;2023-02-07T15:16:56;2.83;;;1.70;;
17363;SDS011;8799;43.594;13.526;2023-02-07T15:19:25;5.87;;;1.83;;
17363;SDS011;8799;43.594;13.526;2023-02-07T15:22:01;6.63;;;2.50;;
17363;SDS011;8799;43.594;13.526;2023-02-07T15:24:31;3.83;;;1.93;;
17363;SDS011;8799;43.594;13.526;2023-02-07T15:27:03;2.07;;;1.57;;
17363;SDS011;8799;43.594;13.526;2023-02-07T15:29:35;2.77;;;1.70;;
17363;SDS011;8799;43.594;13.526;2023-02-07T15:32:10;5.30;;;1.87;;
17363;SDS011;8799;43.594;13.526;2023-02-07T15:34:46;2.83;;;1.63;;
17363;SDS011;8799;43.594;13.526;2023-02-07T15:37:18;3.23;;;2.07;;
17363;SDS011;8799;43.594;13.526;2023-02-07T15:39:49;3.17;;;2.00;;
17363;SDS011;8799;43.594;13.526;2023-02-07T15:42:20;4.70;;;2.00;;